createdAt,value
2023-03-06T00:01:33.374Z,95889.84
2023-03-06T00:03:35.518Z,95886.06
2023-03-06T00:05:37.470Z,95880.34
2023-03-06T00:07:39.178Z,95884.53
2023-03-06T00:09:40.693Z,95878.44
2023-03-06T00:11:42.607Z,95881.47
2023-03-06T00:13:44.979Z,95876.13
2023-03-06T00:15:47.190Z,95877.69
2023-03-06T00:17:49.018Z,95868.56
2023-03-06T00:19:50.661Z,95865.47
2023-03-06T00:21:52.253Z,95873.84
2023-03-06T00:23:53.863Z,95871.19
2023-03-06T00:25:55.457Z,95868.13
2023-03-06T00:27:56.976Z,95873.88
2023-03-06T00:30:00.756Z,95868.88
2023-03-06T00:32:02.451Z,95860.91
2023-03-06T00:34:04.585Z,95864.69
2023-03-06T00:36:06.628Z,95852.53
2023-03-06T00:38:11.631Z,95861.66
2023-03-06T00:40:15.861Z,95852.16
2023-03-06T00:42:18.422Z,95847.97
2023-03-06T00:44:20.014Z,95853.31
2023-03-06T00:46:21.695Z,95841.50
2023-03-06T00:48:23.320Z,95846.06
2023-03-06T00:50:27.521Z,95849.47
2023-03-06T00:52:29.173Z,95844.53
2023-03-06T00:54:30.684Z,95837.66
2023-03-06T00:56:32.246Z,95841.50
2023-03-06T00:58:33.818Z,95833.50
2023-03-06T01:00:35.639Z,95833.91
2023-03-06T01:02:37.440Z,95833.09
2023-03-06T01:04:39.601Z,95823.94
2023-03-06T01:06:41.246Z,95822.44
2023-03-06T01:08:43.051Z,95816.75
2023-03-06T01:10:45.074Z,95822.06
2023-03-06T01:12:46.921Z,95811.03
2023-03-06T01:14:48.504Z,95812.94
2023-03-06T01:16:50.527Z,95806.84
2023-03-06T01:18:52.305Z,95808.38
2023-03-06T01:20:54.018Z,95806.84
2023-03-06T01:22:56.500Z,95803.78
2023-03-06T01:24:58.053Z,95796.94
2023-03-06T01:26:59.621Z,95795.44
2023-03-06T01:29:01.780Z,95788.56
2023-03-06T01:31:04.104Z,95795.78
2023-03-06T01:33:05.754Z,95791.97
2023-03-06T01:35:07.578Z,95783.59
2023-03-06T01:37:09.122Z,95782.88
2023-03-06T01:39:10.729Z,95776.38
2023-03-06T01:41:15.637Z,95772.59
2023-03-06T01:43:31.520Z,95775.63
2023-03-06T01:45:33.332Z,95769.88
2023-03-06T01:47:35.308Z,95766.47
2023-03-06T01:49:40.139Z,95761.50
2023-03-06T01:51:53.446Z,95760.38
2023-03-06T01:53:56.337Z,95750.47
2023-03-06T01:55:58.242Z,95751.63
2023-03-06T01:58:07.186Z,95744.00
2023-03-06T02:00:09.875Z,95745.94
2023-03-06T02:02:18.056Z,95745.13
2023-03-06T02:04:20.446Z,95739.44
2023-03-06T02:06:22.256Z,95738.69
2023-03-06T02:08:24.475Z,95734.88
2023-03-06T02:10:26.043Z,95737.53
2023-03-06T02:12:27.967Z,95730.69
2023-03-06T02:14:30.059Z,95738.31
2023-03-06T02:16:32.891Z,95728.75
2023-03-06T02:18:34.888Z,95721.53
2023-03-06T02:20:45.272Z,95723.06
2023-03-06T02:22:57.005Z,95730.31
2023-03-06T02:25:07.741Z,95726.13
2023-03-06T02:27:12.321Z,95735.66
2023-03-06T02:29:20.196Z,95720.41
2023-03-06T02:31:27.448Z,95725.72
2023-03-06T02:33:29.875Z,95731.44
2023-03-06T02:35:38.584Z,95718.88
2023-03-06T02:37:40.253Z,95723.84
2023-03-06T02:39:46.760Z,95715.81
2023-03-06T02:41:48.685Z,95714.66
2023-03-06T02:43:52.601Z,95716.94
2023-03-06T02:45:54.197Z,95718.47
2023-03-06T02:47:55.801Z,95710.88
2023-03-06T02:49:57.400Z,95705.13
2023-03-06T02:51:59.094Z,95702.84
2023-03-06T02:54:00.728Z,95693.72
2023-03-06T02:56:02.452Z,95706.28
2023-03-06T02:58:04.688Z,95691.06
2023-03-06T03:00:07.206Z,95694.50
2023-03-06T03:02:09.514Z,95694.91
2023-03-06T03:04:11.233Z,95693.34
2023-03-06T03:06:13.880Z,95700.19
2023-03-06T03:08:15.917Z,95700.22
2023-03-06T03:10:17.827Z,95695.28
2023-03-06T03:12:22.241Z,95697.56
2023-03-06T03:14:24.599Z,95698.34
2023-03-06T03:16:26.444Z,95686.50
2023-03-06T03:18:31.954Z,95693.34
2023-03-06T03:20:33.774Z,95683.84
2023-03-06T03:22:35.597Z,95688.81
2023-03-06T03:24:37.149Z,95684.63
2023-03-06T03:26:39.246Z,95684.28
2023-03-06T03:28:46.482Z,95682.75
2023-03-06T03:30:51.522Z,95679.31
2023-03-06T03:32:53.319Z,95679.69
2023-03-06T03:34:56.066Z,95685.00
2023-03-06T03:36:58.882Z,95672.41
2023-03-06T03:39:00.567Z,95671.22
2023-03-06T03:41:03.045Z,95671.66
2023-03-06T03:43:05.083Z,95674.31
2023-03-06T03:45:07.934Z,95675.84
2023-03-06T03:47:09.666Z,95672.78
2023-03-06T03:49:11.576Z,95672.06
2023-03-06T03:51:16.491Z,95667.91
2023-03-06T03:53:21.933Z,95674.75
2023-03-06T03:55:23.593Z,95673.59
2023-03-06T03:57:25.497Z,95671.72
2023-03-06T03:59:28.656Z,95672.84
2023-03-06T04:01:45.818Z,95664.47
2023-03-06T04:03:47.819Z,95667.53
2023-03-06T04:05:53.836Z,95659.16
2023-03-06T04:07:55.335Z,95658.78
2023-03-06T04:09:57.119Z,95651.91
2023-03-06T04:11:59.193Z,95655.31
2023-03-06T04:14:00.987Z,95653.78
2023-03-06T04:16:02.920Z,95661.81
2023-03-06T04:18:06.579Z,95655.34
2023-03-06T04:20:09.817Z,95653.81
2023-03-06T04:22:11.594Z,95654.59
2023-03-06T04:24:14.926Z,95647.75
2023-03-06T04:26:17.563Z,95642.78
2023-03-06T04:28:20.138Z,95642.44
2023-03-06T04:30:21.985Z,95646.59
2023-03-06T04:32:24.300Z,95640.13
2023-03-06T04:34:26.569Z,95634.03
2023-03-06T04:36:33.344Z,95630.59
2023-03-06T04:38:42.021Z,95624.09
2023-03-06T04:40:45.145Z,95626.06
2023-03-06T04:42:47.829Z,95624.13
2023-03-06T04:44:49.371Z,95628.31
2023-03-06T04:46:51.058Z,95618.84
2023-03-06T04:48:52.645Z,95618.41
2023-03-06T04:50:54.234Z,95621.44
2023-03-06T04:52:55.801Z,95624.13
2023-03-06T04:54:57.740Z,95630.19
2023-03-06T04:56:59.373Z,95624.50
2023-03-06T04:59:02.554Z,95617.28
2023-03-06T05:01:04.735Z,95615.75
2023-03-06T05:03:06.307Z,95611.97
2023-03-06T05:05:08.866Z,95619.19
2023-03-06T05:07:10.802Z,95608.91
2023-03-06T05:09:12.358Z,95611.94
2023-03-06T05:11:13.857Z,95608.91
2023-03-06T05:13:15.454Z,95607.75
2023-03-06T05:15:17.380Z,95601.28
2023-03-06T05:17:18.901Z,95610.03
2023-03-06T05:19:20.746Z,95602.81
2023-03-06T05:21:22.769Z,95609.69
2023-03-06T05:23:24.349Z,95599.03
2023-03-06T05:25:26.253Z,95603.22
2023-03-06T05:27:28.515Z,95609.66
2023-03-06T05:29:30.198Z,95601.28
2023-03-06T05:31:31.806Z,95602.78
2023-03-06T05:33:35.161Z,95602.81
2023-03-06T05:35:36.760Z,95599.00
2023-03-06T05:37:38.236Z,95599.72
2023-03-06T05:39:39.923Z,95596.72
2023-03-06T05:41:41.525Z,95591.75
2023-03-06T05:43:44.251Z,95594.03
2023-03-06T05:45:45.847Z,95596.31
2023-03-06T05:47:47.426Z,95587.97
2023-03-06T05:49:49.031Z,95589.88
2023-03-06T05:51:50.606Z,95585.31
2023-03-06T05:53:52.315Z,95586.44
2023-03-06T05:55:58.861Z,95589.88
2023-03-06T05:58:00.410Z,95588.38
2023-03-06T06:00:01.998Z,95593.72
2023-03-06T06:02:05.412Z,95597.53
2023-03-06T06:04:07.209Z,95584.59
2023-03-06T06:06:11.003Z,95592.94
2023-03-06T06:08:12.518Z,95599.41
2023-03-06T06:10:14.273Z,95590.66
2023-03-06T06:12:15.901Z,95592.59
2023-03-06T06:14:17.612Z,95588.81
2023-03-06T06:16:19.414Z,95589.16
2023-03-06T06:18:21.349Z,95586.09
2023-03-06T06:20:24.152Z,95583.06
2023-03-06T06:22:25.857Z,95591.44
2023-03-06T06:24:27.446Z,95593.31
2023-03-06T06:26:29.022Z,95591.84
2023-03-06T06:28:31.154Z,95592.19
2023-03-06T06:30:33.442Z,95599.44
2023-03-06T06:32:36.394Z,95594.88
2023-03-06T06:34:38.043Z,95595.25
2023-03-06T06:36:40.344Z,95591.09
2023-03-06T06:38:41.900Z,95587.63
2023-03-06T06:40:46.968Z,95586.13
2023-03-06T06:43:00.158Z,95592.94
2023-03-06T06:45:02.316Z,95596.00
2023-03-06T06:47:23.471Z,95594.44
2023-03-06T06:49:25.898Z,95596.00
2023-03-06T06:51:27.430Z,95594.09
2023-03-06T06:53:29.037Z,95595.97
2023-03-06T06:55:30.650Z,95592.56
2023-03-06T06:57:32.299Z,95595.63
2023-03-06T06:59:33.908Z,95592.97
2023-03-06T07:01:35.629Z,95597.91
2023-03-06T07:03:37.799Z,95598.28
2023-03-06T07:05:39.608Z,95599.03
2023-03-06T07:07:41.462Z,95597.09
2023-03-06T07:09:43.749Z,95598.28
2023-03-06T07:11:45.353Z,95600.94
2023-03-06T07:13:47.517Z,95601.31
2023-03-06T07:15:49.115Z,95601.31
2023-03-06T07:17:50.727Z,95596.38
2023-03-06T07:19:52.341Z,95598.63
2023-03-06T07:21:53.997Z,95599.03
2023-03-06T07:23:57.353Z,95605.47
2023-03-06T07:25:59.250Z,95603.22
2023-03-06T07:28:01.056Z,95612.38
2023-03-06T07:30:02.811Z,95607.44
2023-03-06T07:32:05.078Z,95596.78
2023-03-06T07:34:06.734Z,95610.50
2023-03-06T07:36:12.724Z,95612.00
2023-03-06T07:38:14.599Z,95610.84
2023-03-06T07:40:16.505Z,95611.97
2023-03-06T07:42:18.045Z,95608.56
2023-03-06T07:44:30.282Z,95607.03
2023-03-06T07:46:31.991Z,95611.59
2023-03-06T07:48:34.512Z,95611.97
2023-03-06T07:50:36.240Z,95606.28
2023-03-06T07:52:37.845Z,95606.66
2023-03-06T07:54:39.474Z,95601.34
2023-03-06T07:56:41.163Z,95605.91
2023-03-06T07:58:46.193Z,95602.44
2023-03-06T08:00:47.977Z,95610.44
2023-03-06T08:02:49.544Z,95611.97
2023-03-06T08:04:55.275Z,95604.72
2023-03-06T08:06:59.401Z,95608.91
2023-03-06T08:09:01.036Z,95602.78
2023-03-06T08:11:03.569Z,95610.38
2023-03-06T08:13:05.151Z,95608.13
2023-03-06T08:15:09.315Z,95606.25
2023-03-06T08:17:10.841Z,95607.00
2023-03-06T08:19:12.446Z,95608.53
2023-03-06T08:21:19.750Z,95605.88
2023-03-06T08:23:21.304Z,95613.25
2023-03-06T08:25:24.558Z,95607.97
2023-03-06T08:27:26.181Z,95609.56
2023-03-06T08:29:27.718Z,95618.00
2023-03-06T08:31:39.665Z,95613.41
2023-03-06T08:33:41.270Z,95611.13
2023-03-06T08:35:43.157Z,95617.22
2023-03-06T08:37:45.146Z,95617.22
2023-03-06T08:39:46.809Z,95618.00
2023-03-06T08:41:48.328Z,95615.72
2023-03-06T08:43:50.356Z,95617.22
2023-03-06T08:45:57.175Z,95618.00
2023-03-06T08:47:58.960Z,95611.50
2023-03-06T08:50:00.953Z,95613.75
2023-03-06T08:52:02.582Z,95617.59
2023-03-06T08:54:04.361Z,95614.19
2023-03-06T08:56:06.557Z,95614.88
2023-03-06T08:58:08.565Z,95618.34
2023-03-06T09:00:10.975Z,95619.00
2023-03-06T09:02:13.170Z,95625.34
2023-03-06T09:04:14.813Z,95613.81
2023-03-06T09:06:17.012Z,95620.94
2023-03-06T09:08:18.557Z,95619.38
2023-03-06T09:10:22.499Z,95622.72
2023-03-06T09:12:24.232Z,95621.88
2023-03-06T09:14:25.898Z,95619.25
2023-03-06T09:16:27.865Z,95628.00
2023-03-06T09:18:29.507Z,95624.59
2023-03-06T09:20:31.361Z,95623.66
2023-03-06T09:22:33.461Z,95629.03
2023-03-06T09:24:35.361Z,95626.44
2023-03-06T09:26:45.525Z,95627.53
2023-03-06T09:28:48.379Z,95626.75
2023-03-06T09:30:50.325Z,95629.72
2023-03-06T09:32:51.996Z,95634.22
2023-03-06T09:34:53.667Z,95632.31
2023-03-06T09:36:57.133Z,95623.09
2023-03-06T09:38:59.322Z,95627.66
2023-03-06T09:43:20.595Z,95626.41
2023-03-06T09:45:22.724Z,95622.25
2023-03-06T09:47:40.564Z,95630.09
2023-03-06T09:49:52.134Z,95638.44
2023-03-06T09:52:17.702Z,95630.03
2023-03-06T09:54:26.575Z,95628.56
2023-03-06T09:56:32.713Z,95632.09
2023-03-06T09:58:40.804Z,95629.94
2023-03-06T10:00:55.364Z,95632.75
2023-03-06T10:03:12.697Z,95637.00
2023-03-06T10:05:24.221Z,95633.25
2023-03-06T10:07:42.855Z,95633.22
2023-03-06T10:09:56.970Z,95632.88
2023-03-06T10:12:04.770Z,95637.19
2023-03-06T10:14:20.261Z,95621.88
2023-03-06T10:16:30.658Z,95628.56
2023-03-06T10:18:32.955Z,95623.00
2023-03-06T10:20:43.997Z,95634.31
2023-03-06T10:23:07.093Z,95631.56
2023-03-06T10:25:43.672Z,95627.94
2023-03-06T10:27:47.556Z,95622.34
2023-03-06T10:30:19.734Z,95617.38
2023-03-06T10:32:46.257Z,95616.56
2023-03-06T10:34:50.405Z,95625.88
2023-03-06T10:36:52.037Z,95623.06
2023-03-06T10:38:56.226Z,95630.56
2023-03-06T10:41:13.015Z,95630.19
2023-03-06T10:43:14.692Z,95634.25
2023-03-06T10:45:17.440Z,95642.22
2023-03-06T10:47:29.992Z,95645.97
2023-03-06T10:49:37.308Z,95646.13
2023-03-06T10:51:39.005Z,95646.91
2023-03-06T10:53:48.669Z,95647.66
2023-03-06T10:55:58.839Z,95648.78
2023-03-06T10:58:29.181Z,95645.28
2023-03-06T11:00:37.921Z,95642.22
2023-03-06T11:02:41.025Z,95642.19
2023-03-06T11:04:51.013Z,95648.28
2023-03-06T11:07:12.592Z,95638.72
2023-03-06T11:09:25.669Z,95652.28
2023-03-06T11:11:37.152Z,95647.22
2023-03-06T11:13:45.150Z,95638.19
2023-03-06T11:15:58.197Z,95637.31
2023-03-06T11:18:07.521Z,95632.06
2023-03-06T11:20:16.424Z,95636.84
2023-03-06T11:22:18.953Z,95630.47
2023-03-06T11:24:22.934Z,95624.25
2023-03-06T11:26:34.449Z,95625.25
2023-03-06T11:28:49.884Z,95625.09
2023-03-06T11:31:02.409Z,95620.47
2023-03-06T11:33:16.264Z,95612.34
2023-03-06T11:35:51.766Z,95616.88
2023-03-06T11:38:00.738Z,95618.69
2023-03-06T11:40:11.076Z,95619.13
2023-03-06T11:42:27.733Z,95612.81
2023-03-06T11:45:25.892Z,95610.16
2023-03-06T11:47:39.170Z,95599.53
2023-03-06T11:49:45.751Z,95606.63
2023-03-06T11:51:55.247Z,95611.53
2023-03-06T11:54:00.293Z,95598.84
2023-03-06T11:56:19.900Z,95604.06
2023-03-06T11:58:49.558Z,95598.31
2023-03-06T12:01:12.922Z,95595.22
2023-03-06T12:03:31.576Z,95599.72
2023-03-06T12:06:01.220Z,95596.88
2023-03-06T12:08:16.774Z,95593.28
2023-03-06T12:10:28.621Z,95594.13
2023-03-06T12:13:01.220Z,95599.22
2023-03-06T12:15:22.218Z,95589.00
2023-03-06T12:17:42.852Z,95595.16
2023-03-06T12:19:49.785Z,95594.38
2023-03-06T12:22:09.632Z,95587.56
2023-03-06T12:24:36.401Z,95585.13
2023-03-06T12:26:50.519Z,95573.97
2023-03-06T12:29:20.932Z,95577.50
2023-03-06T12:31:51.207Z,95571.16
2023-03-06T12:34:14.092Z,95570.25
2023-03-06T12:36:40.749Z,95565.91
2023-03-06T12:38:53.057Z,95573.41
2023-03-06T12:41:11.322Z,95572.41
2023-03-06T12:43:54.846Z,95573.16
2023-03-06T12:46:03.473Z,95566.81
2023-03-06T12:48:14.923Z,95563.44
2023-03-06T12:50:23.917Z,95556.47
2023-03-06T12:52:30.695Z,95553.38
2023-03-06T12:54:37.395Z,95556.56
2023-03-06T12:56:39.732Z,95558.13
2023-03-06T12:58:51.992Z,95561.91
2023-03-06T13:01:16.600Z,95563.78
2023-03-06T13:03:54.392Z,95567.00
2023-03-06T13:06:27.627Z,95564.06
2023-03-06T13:08:54.182Z,95567.66
2023-03-06T13:11:54.049Z,95573.34
2023-03-06T13:13:56.500Z,95575.22
2023-03-06T13:16:12.646Z,95581.28
2023-03-06T13:18:23.242Z,95580.94
2023-03-06T13:20:42.964Z,95571.38
2023-03-06T13:22:47.186Z,95573.25
2023-03-06T13:25:08.928Z,95569.97
2023-03-06T13:27:12.373Z,95569.38
2023-03-06T13:29:35.633Z,95565.53
2023-03-06T13:31:37.449Z,95570.06
2023-03-06T13:33:39.069Z,95557.63
2023-03-06T13:35:40.625Z,95553.13
2023-03-06T13:37:50.106Z,95559.34
2023-03-06T13:39:58.407Z,95558.09
2023-03-06T13:42:00.239Z,95559.19
2023-03-06T13:44:24.911Z,95557.16
2023-03-06T13:46:35.201Z,95553.22
2023-03-06T13:48:44.678Z,95552.56
2023-03-06T13:50:48.786Z,95554.06
2023-03-06T13:53:09.034Z,95550.03
2023-03-06T13:55:33.408Z,95556.81
2023-03-06T13:57:45.014Z,95556.22
2023-03-06T14:00:11.875Z,95560.88
2023-03-06T14:02:39.674Z,95564.50
2023-03-06T14:04:47.041Z,95559.91
2023-03-06T14:07:06.632Z,95554.13
2023-03-06T14:09:23.027Z,95553.25
2023-03-06T14:11:25.238Z,95542.66
2023-03-06T14:13:45.256Z,95539.63
2023-03-06T14:15:54.145Z,95532.50
2023-03-06T14:18:07.144Z,95536.28
2023-03-06T14:20:17.849Z,95541.13
2023-03-06T14:22:24.614Z,95542.50
2023-03-06T14:24:54.025Z,95540.38
2023-03-06T14:26:55.718Z,95534.56
2023-03-06T14:29:02.568Z,95528.00
2023-03-06T14:31:05.980Z,95527.19
2023-03-06T14:33:11.471Z,95524.09
2023-03-06T14:35:39.246Z,95522.09
2023-03-06T14:37:40.899Z,95519.72
2023-03-06T14:39:44.194Z,95516.28
2023-03-06T14:41:45.829Z,95516.19
2023-03-06T14:43:47.436Z,95514.69
2023-03-06T14:46:03.590Z,95516.06
2023-03-06T14:48:06.421Z,95514.66
2023-03-06T14:50:24.583Z,95514.72
2023-03-06T14:52:26.213Z,95512.44
2023-03-06T14:54:34.006Z,95514.91
2023-03-06T14:56:42.066Z,95512.47
2023-03-06T14:58:59.175Z,95513.34
2023-03-06T15:01:09.926Z,95503.50
2023-03-06T15:03:17.920Z,95509.72
2023-03-06T15:05:27.697Z,95505.22
2023-03-06T15:07:31.649Z,95508.09
2023-03-06T15:09:35.791Z,95505.72
2023-03-06T15:11:57.835Z,95514.88
2023-03-06T15:14:04.412Z,95515.75
2023-03-06T15:16:06.174Z,95510.50
2023-03-06T15:18:54.584Z,95510.28
2023-03-06T15:21:20.852Z,95504.09
2023-03-06T15:23:34.607Z,95510.03
2023-03-06T15:25:36.313Z,95518.66
2023-03-06T15:27:38.099Z,95514.31
2023-03-06T15:29:39.813Z,95512.19
2023-03-06T15:31:44.434Z,95509.63
2023-03-06T15:34:09.065Z,95512.50
2023-03-06T15:36:30.681Z,95515.31
2023-03-06T15:38:32.800Z,95516.00
2023-03-06T15:40:34.512Z,95509.72
2023-03-06T15:42:36.595Z,95515.31
2023-03-06T15:44:38.216Z,95515.41
2023-03-06T15:46:39.997Z,95510.72
2023-03-06T15:48:55.215Z,95513.03
2023-03-06T15:50:57.113Z,95510.59
2023-03-06T15:52:58.831Z,95512.00
2023-03-06T15:55:00.322Z,95514.47
2023-03-06T15:57:05.143Z,95518.06
2023-03-06T15:59:10.670Z,95509.16
2023-03-06T16:01:16.460Z,95511.59
2023-03-06T16:03:18.245Z,95505.94
2023-03-06T16:05:20.385Z,95507.41
2023-03-06T16:07:21.911Z,95505.88
2023-03-06T16:09:23.662Z,95506.00
2023-03-06T16:11:41.817Z,95499.00
2023-03-06T16:13:45.966Z,95500.09
2023-03-06T16:15:49.064Z,95498.41
2023-03-06T16:17:51.011Z,95504.34
2023-03-06T16:19:52.892Z,95507.41
2023-03-06T16:21:55.658Z,95506.25
2023-03-06T16:23:57.105Z,95506.94
2023-03-06T16:25:58.808Z,95497.22
2023-03-06T16:28:00.904Z,95507.66
2023-03-06T16:30:03.537Z,95504.13
2023-03-06T16:32:05.686Z,95504.81
2023-03-06T16:34:07.289Z,95502.09
2023-03-06T16:36:13.795Z,95516.47
2023-03-06T16:38:16.544Z,95511.84
2023-03-06T16:40:24.118Z,95518.84
2023-03-06T16:42:25.760Z,95513.34
2023-03-06T16:44:27.287Z,95525.19
2023-03-06T16:46:29.397Z,95523.84
2023-03-06T16:48:38.362Z,95522.91
2023-03-06T16:50:40.216Z,95525.59
2023-03-06T16:52:41.787Z,95521.50
2023-03-06T16:54:44.782Z,95533.56
2023-03-06T16:56:46.547Z,95532.78
2023-03-06T16:58:48.579Z,95526.31
2023-03-06T17:00:50.211Z,95528.97
2023-03-06T17:02:52.688Z,95535.38
2023-03-06T17:04:55.472Z,95538.81
2023-03-06T17:06:58.502Z,95535.84
2023-03-06T17:09:00.193Z,95542.31
2023-03-06T17:11:05.709Z,95535.03
2023-03-06T17:13:08.518Z,95529.28
2023-03-06T17:15:11.610Z,95536.53
2023-03-06T17:17:13.142Z,95537.25
2023-03-06T17:19:15.272Z,95535.75
2023-03-06T17:21:16.937Z,95543.47
2023-03-06T17:23:21.075Z,95535.84
2023-03-06T17:25:23.158Z,95539.69
2023-03-06T17:27:24.789Z,95541.25
2023-03-06T17:29:26.281Z,95540.41
2023-03-06T17:31:28.857Z,95539.91
2023-03-06T17:33:30.655Z,95546.53
2023-03-06T17:35:35.179Z,95537.47
2023-03-06T17:37:36.936Z,95547.94
2023-03-06T17:39:38.881Z,95535.28
2023-03-06T17:41:40.573Z,95546.72
2023-03-06T17:43:42.528Z,95542.91
2023-03-06T17:45:47.287Z,95547.03
2023-03-06T17:47:52.863Z,95552.66
2023-03-06T17:49:54.537Z,95550.31
2023-03-06T17:51:59.938Z,95553.34
2023-03-06T17:54:01.616Z,95557.22
2023-03-06T17:56:05.132Z,95552.75
2023-03-06T17:58:07.160Z,95551.28
2023-03-06T18:00:10.767Z,95551.25
2023-03-06T18:02:17.633Z,95544.44
2023-03-06T18:04:19.286Z,95549.78
2023-03-06T18:06:22.109Z,95552.41
2023-03-06T18:08:24.499Z,95548.25
2023-03-06T18:10:25.995Z,95553.22
2023-03-06T18:12:27.534Z,95554.41
2023-03-06T18:14:29.080Z,95551.31
2023-03-06T18:16:30.702Z,95545.19
2023-03-06T18:18:33.213Z,95552.06
2023-03-06T18:20:40.182Z,95553.66
2023-03-06T18:22:41.743Z,95550.16
2023-03-06T18:24:44.100Z,95553.63
2023-03-06T18:26:45.861Z,95553.63
2023-03-06T18:28:51.874Z,95553.63
2023-03-06T18:30:53.362Z,95547.56
2023-03-06T18:32:55.140Z,95544.84
2023-03-06T18:34:57.014Z,95546.84
2023-03-06T18:36:58.628Z,95546.84
2023-03-06T18:39:03.590Z,95547.16
2023-03-06T18:41:07.572Z,95532.31
2023-03-06T18:43:09.096Z,95546.06
2023-03-06T18:45:12.800Z,95538.50
2023-03-06T18:47:15.545Z,95544.94
2023-03-06T18:49:17.305Z,95537.28
2023-03-06T18:51:20.101Z,95539.16
2023-03-06T18:53:22.190Z,95541.88
2023-03-06T18:55:23.808Z,95534.59
2023-03-06T18:57:25.521Z,95530.84
2023-03-06T18:59:27.224Z,95539.97
2023-03-06T19:01:31.159Z,95540.91
2023-03-06T19:03:32.958Z,95538.88
2023-03-06T19:05:38.695Z,95539.25
2023-03-06T19:07:40.278Z,95533.28
2023-03-06T19:09:44.514Z,95538.53
2023-03-06T19:11:46.876Z,95540.81
2023-03-06T19:13:48.697Z,95537.03
2023-03-06T19:15:50.300Z,95533.59
2023-03-06T19:17:51.948Z,95544.34
2023-03-06T19:19:54.992Z,95534.44
2023-03-06T19:22:00.041Z,95540.56
2023-03-06T19:24:02.646Z,95535.97
2023-03-06T19:26:04.257Z,95534.44
2023-03-06T19:28:06.025Z,95537.22
2023-03-06T19:30:08.465Z,95532.69
2023-03-06T19:32:10.128Z,95538.72
2023-03-06T19:34:11.904Z,95531.00
2023-03-06T19:36:14.853Z,95532.59
2023-03-06T19:38:16.617Z,95534.53
2023-03-06T19:40:18.379Z,95544.06
2023-03-06T19:42:19.911Z,95539.47
2023-03-06T19:44:23.023Z,95546.28
2023-03-06T19:46:26.040Z,95532.63
2023-03-06T19:48:27.744Z,95534.88
2023-03-06T19:50:29.646Z,95535.59
2023-03-06T19:52:31.255Z,95536.69
2023-03-06T19:54:32.962Z,95535.63
2023-03-06T19:56:34.558Z,95529.91
2023-03-06T19:58:36.909Z,95525.72
2023-03-06T20:00:38.500Z,95538.63
2023-03-06T20:02:40.126Z,95528.81
2023-03-06T20:04:41.983Z,95537.91
2023-03-06T20:06:46.612Z,95539.50
2023-03-06T20:08:48.947Z,95524.97
2023-03-06T20:10:50.516Z,95529.28
2023-03-06T20:12:52.507Z,95519.75
2023-03-06T20:14:54.068Z,95530.03
2023-03-06T20:16:55.644Z,95526.63
2023-03-06T20:18:58.786Z,95527.72
2023-03-06T20:21:02.111Z,95529.34
2023-03-06T20:23:04.585Z,95520.59
2023-03-06T20:25:06.479Z,95521.78
2023-03-06T20:27:08.095Z,95525.19
2023-03-06T20:29:10.293Z,95529.78
2023-03-06T20:31:18.265Z,95522.59
2023-03-06T20:33:22.059Z,95511.59
2023-03-06T20:35:23.669Z,95518.03
2023-03-06T20:37:25.163Z,95515.38
2023-03-06T20:39:26.890Z,95513.88
2023-03-06T20:41:30.105Z,95510.06
2023-03-06T20:43:31.672Z,95506.28
2023-03-06T20:45:33.743Z,95508.94
2023-03-06T20:47:35.572Z,95511.22
2023-03-06T20:49:37.983Z,95519.97
2023-03-06T20:51:41.458Z,95513.13
2023-03-06T20:53:43.401Z,95510.44
2023-03-06T20:55:47.937Z,95507.41
2023-03-06T20:57:51.932Z,95506.66
2023-03-06T20:59:53.424Z,95505.91
2023-03-06T21:01:55.100Z,95504.00
2023-03-06T21:03:58.201Z,95505.50
2023-03-06T21:06:00.118Z,95506.25
2023-03-06T21:08:01.637Z,95499.81
2023-03-06T21:10:03.482Z,95498.66
2023-03-06T21:12:05.898Z,95497.16
2023-03-06T21:14:07.603Z,95491.84
2023-03-06T21:16:14.715Z,95494.16
2023-03-06T21:18:16.434Z,95498.72
2023-03-06T21:20:18.103Z,95486.56
2023-03-06T21:22:19.731Z,95505.56
2023-03-06T21:24:21.497Z,95494.91
2023-03-06T21:26:25.780Z,95488.09
2023-03-06T21:28:27.410Z,95490.38
2023-03-06T21:30:29.794Z,95489.19
2023-03-06T21:32:31.974Z,95491.88
2023-03-06T21:34:33.701Z,95491.84
2023-03-06T21:36:35.330Z,95480.84
2023-03-06T21:38:37.680Z,95482.75
2023-03-06T21:40:39.616Z,95483.91
2023-03-06T21:42:41.442Z,95476.28
2023-03-06T21:44:43.116Z,95477.06
2023-03-06T21:46:45.640Z,95474.41
2023-03-06T21:48:47.217Z,95474.03
2023-03-06T21:50:48.876Z,95470.97
2023-03-06T21:52:51.211Z,95469.47
2023-03-06T21:54:52.848Z,95472.09
2023-03-06T21:56:54.697Z,95461.47
2023-03-06T21:58:57.942Z,95460.72
2023-03-06T22:01:00.211Z,95464.88
2023-03-06T22:03:04.706Z,95461.50
2023-03-06T22:05:06.584Z,95459.19
2023-03-06T22:07:08.276Z,95452.75
2023-03-06T22:09:10.064Z,95440.97
2023-03-06T22:11:14.794Z,95436.03
2023-03-06T22:13:16.405Z,95437.53
2023-03-06T22:15:18.077Z,95434.88
2023-03-06T22:17:19.872Z,95444.75
2023-03-06T22:19:21.404Z,95441.72
2023-03-06T22:21:23.804Z,95443.97
2023-03-06T22:23:25.712Z,95439.03
2023-03-06T22:25:27.262Z,95440.53
2023-03-06T22:27:29.723Z,95443.59
2023-03-06T22:29:31.206Z,95445.09
2023-03-06T22:31:32.939Z,95444.34
2023-03-06T22:33:34.991Z,95437.50
2023-03-06T22:35:36.726Z,95431.44
2023-03-06T22:37:38.423Z,95438.28
2023-03-06T22:39:40.145Z,95439.78
2023-03-06T22:41:41.665Z,95437.94
2023-03-06T22:43:43.994Z,95431.84
2023-03-06T22:45:45.824Z,95437.53
2023-03-06T22:47:47.394Z,95428.03
2023-03-06T22:49:49.017Z,95428.06
2023-03-06T22:51:50.592Z,95427.25
2023-03-06T22:53:52.417Z,95435.63
2023-03-06T22:55:57.829Z,95423.44
2023-03-06T22:57:59.323Z,95418.88
2023-03-06T23:00:01.065Z,95420.41
2023-03-06T23:02:03.664Z,95412.81
2023-03-06T23:04:10.845Z,95406.72
2023-03-06T23:06:18.333Z,95415.50
2023-03-06T23:08:19.881Z,95408.66
2023-03-06T23:10:21.419Z,95402.16
2023-03-06T23:12:41.636Z,95403.72
2023-03-06T23:15:02.019Z,95401.78
2023-03-06T23:17:22.316Z,95409.38
2023-03-06T23:19:42.450Z,95404.47
2023-03-06T23:22:02.543Z,95405.97
2023-03-06T23:24:22.828Z,95401.78
2023-03-06T23:26:26.335Z,95406.34
2023-03-06T23:28:28.782Z,95397.63
2023-03-06T23:30:30.353Z,95398.00
2023-03-06T23:32:33.535Z,95402.59
2023-03-06T23:34:35.340Z,95397.25
2023-03-06T23:36:36.990Z,95388.88
2023-03-06T23:38:39.238Z,95393.03
2023-03-06T23:40:40.999Z,95390.41
2023-03-06T23:42:42.495Z,95388.50
2023-03-06T23:44:44.597Z,95392.66
2023-03-06T23:46:46.354Z,95390.78
2023-03-06T23:48:47.864Z,95386.97
2023-03-06T23:50:49.839Z,95396.44
2023-03-06T23:52:55.283Z,95390.75
2023-03-06T23:54:56.761Z,95390.00
2023-03-06T23:56:58.333Z,95380.13
2023-03-06T23:59:00.036Z,95382.00
